sensor_id;sensor_type;location;lat;lon;timestamp;temperature;humidity
18141;DHT22;9196;49.194;12.526;2022-10-15T00:00:23;14.20;99.90
18141;DHT22;9196;49.194;12.526;2022-10-15T00:02:51;14.20;99.90
18141;DHT22;9196;49.194;12.526;2022-10-15T00:05:18;14.20;99.90
18141;DHT22;9196;49.194;12.526;2022-10-15T00:07:45;14.20;99.90
18141;DHT22;9196;49.194;12.526;2022-10-15T00:10:12;14.10;99.90
18141;DHT22;9196;49.194;12.526;2022-10-15T00:12:40;14.10;99.90
18141;DHT22;9196;49.194;12.526;2022-10-15T00:15:08;14.10;99.90
18141;DHT22;9196;49.194;12.526;2022-10-15T00:17:35;14.20;99.90
18141;DHT22;9196;49.194;12.526;2022-10-15T00:20:05;14.10;99.90
18141;DHT22;9196;49.194;12.526;2022-10-15T00:22:33;14.10;99.90
18141;DHT22;9196;49.194;12.526;2022-10-15T00:24:59;14.00;99.90
18141;DHT22;9196;49.194;12.526;2022-10-15T00:27:26;14.00;99.90
18141;DHT22;9196;49.194;12.526;2022-10-15T00:29:53;13.90;99.90
18141;DHT22;9196;49.194;12.526;2022-10-15T00:32:20;13.90;99.90
18141;DHT22;9196;49.194;12.526;2022-10-15T00:34:47;14.00;99.90
18141;DHT22;9196;49.194;12.526;2022-10-15T00:37:15;13.90;99.90
18141;DHT22;9196;49.194;12.526;2022-10-15T00:39:42;14.00;99.90
18141;DHT22;9196;49.194;12.526;2022-10-15T00:42:10;13.90;99.90
18141;DHT22;9196;49.194;12.526;2022-10-15T00:44:50;14.00;99.90
18141;DHT22;9196;49.194;12.526;2022-10-15T00:47:22;14.00;99.90
18141;DHT22;9196;49.194;12.526;2022-10-15T00:49:55;14.00;99.90
18141;DHT22;9196;49.194;12.526;2022-10-15T00:52:31;14.00;99.90
18141;DHT22;9196;49.194;12.526;2022-10-15T00:55:03;14.00;99.90
18141;DHT22;9196;49.194;12.526;2022-10-15T00:57:31;14.00;99.90
18141;DHT22;9196;49.194;12.526;2022-10-15T01:00:01;14.00;99.90
18141;DHT22;9196;49.194;12.526;2022-10-15T01:02:28;14.00;99.90
18141;DHT22;9196;49.194;12.526;2022-10-15T01:04:55;13.90;99.90
18141;DHT22;9196;49.194;12.526;2022-10-15T01:07:22;14.00;99.90
18141;DHT22;9196;49.194;12.526;2022-10-15T01:09:50;13.90;99.90
18141;DHT22;9196;49.194;12.526;2022-10-15T01:12:25;13.90;99.90
18141;DHT22;9196;49.194;12.526;2022-10-15T01:15:00;13.80;99.90
18141;DHT22;9196;49.194;12.526;2022-10-15T01:17:34;13.90;99.90
18141;DHT22;9196;49.194;12.526;2022-10-15T01:23:28;13.80;99.90
18141;DHT22;9196;49.194;12.526;2022-10-15T01:26:12;13.80;99.90
18141;DHT22;9196;49.194;12.526;2022-10-15T01:28:46;13.80;99.90
18141;DHT22;9196;49.194;12.526;2022-10-15T01:31:24;13.80;99.90
18141;DHT22;9196;49.194;12.526;2022-10-15T01:34:00;13.80;99.90
18141;DHT22;9196;49.194;12.526;2022-10-15T01:36:33;13.70;99.90
18141;DHT22;9196;49.194;12.526;2022-10-15T01:39:09;13.70;99.90
18141;DHT22;9196;49.194;12.526;2022-10-15T01:41:41;13.80;99.90
18141;DHT22;9196;49.194;12.526;2022-10-15T01:44:11;13.80;99.90
18141;DHT22;9196;49.194;12.526;2022-10-15T01:46:44;13.80;99.90
18141;DHT22;9196;49.194;12.526;2022-10-15T01:49:13;13.70;99.90
18141;DHT22;9196;49.194;12.526;2022-10-15T01:51:42;13.70;99.90
18141;DHT22;9196;49.194;12.526;2022-10-15T01:54:13;13.60;99.90
18141;DHT22;9196;49.194;12.526;2022-10-15T01:56:43;13.60;99.90
18141;DHT22;9196;49.194;12.526;2022-10-15T01:59:14;13.60;99.90
18141;DHT22;9196;49.194;12.526;2022-10-15T02:01:44;13.60;99.90
18141;DHT22;9196;49.194;12.526;2022-10-15T02:04:19;13.60;99.90
18141;DHT22;9196;49.194;12.526;2022-10-15T02:06:50;13.60;99.90
18141;DHT22;9196;49.194;12.526;2022-10-15T02:09:24;13.60;99.90
18141;DHT22;9196;49.194;12.526;2022-10-15T02:12:03;13.60;99.90
18141;DHT22;9196;49.194;12.526;2022-10-15T02:14:39;13.50;99.90
18141;DHT22;9196;49.194;12.526;2022-10-15T02:17:10;13.50;99.90
18141;DHT22;9196;49.194;12.526;2022-10-15T02:19:42;13.50;99.90
18141;DHT22;9196;49.194;12.526;2022-10-15T02:22:13;13.50;99.90
18141;DHT22;9196;49.194;12.526;2022-10-15T02:24:44;13.50;99.90
18141;DHT22;9196;49.194;12.526;2022-10-15T02:27:14;13.60;99.90
18141;DHT22;9196;49.194;12.526;2022-10-15T02:29:43;13.60;99.90
18141;DHT22;9196;49.194;12.526;2022-10-15T02:32:14;13.60;99.90
18141;DHT22;9196;49.194;12.526;2022-10-15T02:34:43;13.60;99.90
18141;DHT22;9196;49.194;12.526;2022-10-15T02:37:11;13.60;99.90
18141;DHT22;9196;49.194;12.526;2022-10-15T02:39:39;13.60;99.90
18141;DHT22;9196;49.194;12.526;2022-10-15T02:42:06;13.60;99.90
18141;DHT22;9196;49.194;12.526;2022-10-15T02:44:33;13.60;99.90
18141;DHT22;9196;49.194;12.526;2022-10-15T02:47:00;13.60;99.90
18141;DHT22;9196;49.194;12.526;2022-10-15T02:49:28;13.60;99.90
18141;DHT22;9196;49.194;12.526;2022-10-15T02:51:55;13.60;99.90
18141;DHT22;9196;49.194;12.526;2022-10-15T02:54:22;13.60;99.90
18141;DHT22;9196;49.194;12.526;2022-10-15T02:56:49;13.60;99.90
18141;DHT22;9196;49.194;12.526;2022-10-15T02:59:16;13.60;99.90
18141;DHT22;9196;49.194;12.526;2022-10-15T03:01:44;13.50;99.90
18141;DHT22;9196;49.194;12.526;2022-10-15T03:04:11;13.50;99.90
18141;DHT22;9196;49.194;12.526;2022-10-15T03:06:39;13.50;99.90
18141;DHT22;9196;49.194;12.526;2022-10-15T03:09:06;13.50;99.90
18141;DHT22;9196;49.194;12.526;2022-10-15T03:11:33;13.50;99.90
18141;DHT22;9196;49.194;12.526;2022-10-15T03:13:59;13.50;99.90
18141;DHT22;9196;49.194;12.526;2022-10-15T03:16:26;13.50;99.90
18141;DHT22;9196;49.194;12.526;2022-10-15T03:18:53;13.50;99.90
18141;DHT22;9196;49.194;12.526;2022-10-15T03:21:20;13.50;99.90
18141;DHT22;9196;49.194;12.526;2022-10-15T03:23:48;13.50;99.90
18141;DHT22;9196;49.194;12.526;2022-10-15T03:26:15;13.50;99.90
18141;DHT22;9196;49.194;12.526;2022-10-15T03:28:42;13.60;99.90
18141;DHT22;9196;49.194;12.526;2022-10-15T03:31:08;13.60;99.90
18141;DHT22;9196;49.194;12.526;2022-10-15T03:33:35;13.60;99.90
18141;DHT22;9196;49.194;12.526;2022-10-15T03:36:02;13.60;99.90
18141;DHT22;9196;49.194;12.526;2022-10-15T03:38:29;13.60;99.90
18141;DHT22;9196;49.194;12.526;2022-10-15T03:40:57;13.50;99.90
18141;DHT22;9196;49.194;12.526;2022-10-15T03:43:24;13.50;99.90
18141;DHT22;9196;49.194;12.526;2022-10-15T03:45:51;13.60;99.90
18141;DHT22;9196;49.194;12.526;2022-10-15T03:48:18;13.60;99.90
18141;DHT22;9196;49.194;12.526;2022-10-15T03:50:45;13.60;99.90
18141;DHT22;9196;49.194;12.526;2022-10-15T03:53:12;13.60;99.90
18141;DHT22;9196;49.194;12.526;2022-10-15T03:55:39;13.70;99.90
18141;DHT22;9196;49.194;12.526;2022-10-15T03:58:07;13.60;99.90
18141;DHT22;9196;49.194;12.526;2022-10-15T04:00:34;13.60;99.90
18141;DHT22;9196;49.194;12.526;2022-10-15T04:03:01;13.60;99.90
18141;DHT22;9196;49.194;12.526;2022-10-15T04:05:28;13.60;99.90
18141;DHT22;9196;49.194;12.526;2022-10-15T04:07:55;13.60;99.90
18141;DHT22;9196;49.194;12.526;2022-10-15T04:10:22;13.70;99.90
18141;DHT22;9196;49.194;12.526;2022-10-15T04:12:49;13.70;99.90
18141;DHT22;9196;49.194;12.526;2022-10-15T04:15:17;13.80;99.90
18141;DHT22;9196;49.194;12.526;2022-10-15T04:17:44;13.80;99.90
18141;DHT22;9196;49.194;12.526;2022-10-15T04:20:11;13.80;99.90
18141;DHT22;9196;49.194;12.526;2022-10-15T04:22:38;13.90;99.90
18141;DHT22;9196;49.194;12.526;2022-10-15T04:25:05;13.80;99.90
18141;DHT22;9196;49.194;12.526;2022-10-15T04:27:32;13.90;99.90
18141;DHT22;9196;49.194;12.526;2022-10-15T04:29:59;13.90;99.90
18141;DHT22;9196;49.194;12.526;2022-10-15T04:32:27;13.90;99.90
18141;DHT22;9196;49.194;12.526;2022-10-15T04:34:54;14.00;99.90
18141;DHT22;9196;49.194;12.526;2022-10-15T04:37:21;13.90;99.90
18141;DHT22;9196;49.194;12.526;2022-10-15T04:39:47;13.90;99.90
18141;DHT22;9196;49.194;12.526;2022-10-15T04:42:14;13.90;99.90
18141;DHT22;9196;49.194;12.526;2022-10-15T04:44:41;13.90;99.90
18141;DHT22;9196;49.194;12.526;2022-10-15T04:47:08;13.90;99.90
18141;DHT22;9196;49.194;12.526;2022-10-15T04:49:36;13.90;99.90
18141;DHT22;9196;49.194;12.526;2022-10-15T04:52:03;13.90;99.90
18141;DHT22;9196;49.194;12.526;2022-10-15T04:54:30;13.80;99.90
18141;DHT22;9196;49.194;12.526;2022-10-15T04:56:57;13.70;99.90
18141;DHT22;9196;49.194;12.526;2022-10-15T04:59:23;13.80;99.90
18141;DHT22;9196;49.194;12.526;2022-10-15T05:01:50;13.80;99.90
18141;DHT22;9196;49.194;12.526;2022-10-15T05:04:17;13.70;99.90
18141;DHT22;9196;49.194;12.526;2022-10-15T05:06:45;13.70;99.90
18141;DHT22;9196;49.194;12.526;2022-10-15T05:09:12;13.70;99.90
18141;DHT22;9196;49.194;12.526;2022-10-15T05:11:39;13.70;99.90
18141;DHT22;9196;49.194;12.526;2022-10-15T05:14:06;13.70;99.90
18141;DHT22;9196;49.194;12.526;2022-10-15T05:16:33;13.80;99.90
18141;DHT22;9196;49.194;12.526;2022-10-15T05:19:01;13.70;99.90
18141;DHT22;9196;49.194;12.526;2022-10-15T05:21:31;13.70;99.90
18141;DHT22;9196;49.194;12.526;2022-10-15T05:24:00;13.70;99.90
18141;DHT22;9196;49.194;12.526;2022-10-15T05:26:28;13.70;99.90
18141;DHT22;9196;49.194;12.526;2022-10-15T05:28:57;13.70;99.90
18141;DHT22;9196;49.194;12.526;2022-10-15T05:31:26;13.70;99.90
18141;DHT22;9196;49.194;12.526;2022-10-15T05:33:54;13.70;99.90
18141;DHT22;9196;49.194;12.526;2022-10-15T05:36:22;13.70;99.90
18141;DHT22;9196;49.194;12.526;2022-10-15T05:38:51;13.70;99.90
18141;DHT22;9196;49.194;12.526;2022-10-15T05:41:20;13.70;99.90
18141;DHT22;9196;49.194;12.526;2022-10-15T05:43:48;13.80;99.90
18141;DHT22;9196;49.194;12.526;2022-10-15T05:46:16;13.80;99.90
18141;DHT22;9196;49.194;12.526;2022-10-15T05:48:47;13.80;99.90
18141;DHT22;9196;49.194;12.526;2022-10-15T05:51:14;13.80;99.90
18141;DHT22;9196;49.194;12.526;2022-10-15T05:53:41;13.70;99.90
18141;DHT22;9196;49.194;12.526;2022-10-15T05:56:10;13.70;99.90
18141;DHT22;9196;49.194;12.526;2022-10-15T05:58:39;13.70;99.90
18141;DHT22;9196;49.194;12.526;2022-10-15T06:01:07;13.80;99.90
18141;DHT22;9196;49.194;12.526;2022-10-15T06:03:35;13.80;99.90
18141;DHT22;9196;49.194;12.526;2022-10-15T06:06:02;13.80;99.90
18141;DHT22;9196;49.194;12.526;2022-10-15T06:08:30;13.80;99.90
18141;DHT22;9196;49.194;12.526;2022-10-15T06:11:01;13.80;99.90
18141;DHT22;9196;49.194;12.526;2022-10-15T06:13:28;13.80;99.90
18141;DHT22;9196;49.194;12.526;2022-10-15T06:15:57;13.80;99.90
18141;DHT22;9196;49.194;12.526;2022-10-15T06:18:23;13.80;99.90
18141;DHT22;9196;49.194;12.526;2022-10-15T06:20:51;13.80;99.90
18141;DHT22;9196;49.194;12.526;2022-10-15T06:23:18;13.90;99.90
18141;DHT22;9196;49.194;12.526;2022-10-15T06:25:46;14.00;99.90
18141;DHT22;9196;49.194;12.526;2022-10-15T06:28:14;14.00;99.90
18141;DHT22;9196;49.194;12.526;2022-10-15T06:30:41;14.00;99.90
18141;DHT22;9196;49.194;12.526;2022-10-15T06:33:09;14.10;99.90
18141;DHT22;9196;49.194;12.526;2022-10-15T06:35:36;14.20;99.90
18141;DHT22;9196;49.194;12.526;2022-10-15T06:38:04;14.20;99.90
18141;DHT22;9196;49.194;12.526;2022-10-15T06:40:31;14.20;99.90
18141;DHT22;9196;49.194;12.526;2022-10-15T06:43:03;14.20;99.90
18141;DHT22;9196;49.194;12.526;2022-10-15T06:45:30;14.20;99.90
18141;DHT22;9196;49.194;12.526;2022-10-15T06:47:57;14.20;99.90
18141;DHT22;9196;49.194;12.526;2022-10-15T06:50:25;14.30;99.90
18141;DHT22;9196;49.194;12.526;2022-10-15T06:52:52;14.30;99.90
18141;DHT22;9196;49.194;12.526;2022-10-15T06:55:18;14.30;99.90
18141;DHT22;9196;49.194;12.526;2022-10-15T06:57:47;14.30;99.90
18141;DHT22;9196;49.194;12.526;2022-10-15T07:00:14;14.30;99.90
18141;DHT22;9196;49.194;12.526;2022-10-15T07:02:41;14.30;99.90
18141;DHT22;9196;49.194;12.526;2022-10-15T07:05:08;14.40;99.90
18141;DHT22;9196;49.194;12.526;2022-10-15T07:07:37;14.40;99.90
18141;DHT22;9196;49.194;12.526;2022-10-15T07:10:04;14.40;99.90
18141;DHT22;9196;49.194;12.526;2022-10-15T07:12:31;14.40;99.90
18141;DHT22;9196;49.194;12.526;2022-10-15T07:14:58;14.40;99.90
18141;DHT22;9196;49.194;12.526;2022-10-15T07:17:25;14.40;99.90
18141;DHT22;9196;49.194;12.526;2022-10-15T07:19:52;14.50;99.90
18141;DHT22;9196;49.194;12.526;2022-10-15T07:22:19;14.50;99.90
18141;DHT22;9196;49.194;12.526;2022-10-15T07:24:47;14.40;99.90
18141;DHT22;9196;49.194;12.526;2022-10-15T07:27:14;14.40;99.90
18141;DHT22;9196;49.194;12.526;2022-10-15T07:29:41;14.50;99.90
18141;DHT22;9196;49.194;12.526;2022-10-15T07:32:08;14.50;99.90
18141;DHT22;9196;49.194;12.526;2022-10-15T07:34:34;14.50;99.90
18141;DHT22;9196;49.194;12.526;2022-10-15T07:37:01;14.50;99.90
18141;DHT22;9196;49.194;12.526;2022-10-15T07:39:28;14.60;99.90
18141;DHT22;9196;49.194;12.526;2022-10-15T07:41:56;14.60;99.90
18141;DHT22;9196;49.194;12.526;2022-10-15T07:44:23;14.60;99.90
18141;DHT22;9196;49.194;12.526;2022-10-15T07:46:50;14.60;99.90
18141;DHT22;9196;49.194;12.526;2022-10-15T07:49:17;14.70;99.90
18141;DHT22;9196;49.194;12.526;2022-10-15T07:51:44;14.70;99.90
18141;DHT22;9196;49.194;12.526;2022-10-15T07:54:11;14.70;99.90
18141;DHT22;9196;49.194;12.526;2022-10-15T07:56:37;14.80;99.90
18141;DHT22;9196;49.194;12.526;2022-10-15T07:59:07;14.80;99.90
18141;DHT22;9196;49.194;12.526;2022-10-15T08:01:34;14.80;99.90
18141;DHT22;9196;49.194;12.526;2022-10-15T08:04:00;14.90;99.90
18141;DHT22;9196;49.194;12.526;2022-10-15T08:06:27;14.90;99.90
18141;DHT22;9196;49.194;12.526;2022-10-15T08:08:54;15.00;99.90
18141;DHT22;9196;49.194;12.526;2022-10-15T08:11:21;15.00;99.90
18141;DHT22;9196;49.194;12.526;2022-10-15T08:13:48;15.00;99.90
18141;DHT22;9196;49.194;12.526;2022-10-15T08:16:16;14.90;99.90
18141;DHT22;9196;49.194;12.526;2022-10-15T08:18:44;14.90;99.90
18141;DHT22;9196;49.194;12.526;2022-10-15T08:21:11;14.80;99.90
18141;DHT22;9196;49.194;12.526;2022-10-15T08:23:38;14.80;99.90
18141;DHT22;9196;49.194;12.526;2022-10-15T08:26:05;14.80;99.90
18141;DHT22;9196;49.194;12.526;2022-10-15T08:28:33;14.80;99.90
18141;DHT22;9196;49.194;12.526;2022-10-15T08:31:01;14.80;99.90
18141;DHT22;9196;49.194;12.526;2022-10-15T08:33:30;14.90;99.90
18141;DHT22;9196;49.194;12.526;2022-10-15T08:35:57;14.90;99.90
18141;DHT22;9196;49.194;12.526;2022-10-15T08:38:24;15.00;99.90
18141;DHT22;9196;49.194;12.526;2022-10-15T08:40:53;15.00;99.90
18141;DHT22;9196;49.194;12.526;2022-10-15T08:43:24;15.00;99.90
18141;DHT22;9196;49.194;12.526;2022-10-15T08:45:55;15.00;99.90
18141;DHT22;9196;49.194;12.526;2022-10-15T08:48:31;15.00;99.90
18141;DHT22;9196;49.194;12.526;2022-10-15T08:51:02;15.00;99.90
18141;DHT22;9196;49.194;12.526;2022-10-15T08:53:36;15.00;99.90
18141;DHT22;9196;49.194;12.526;2022-10-15T08:56:12;15.00;99.90
18141;DHT22;9196;49.194;12.526;2022-10-15T08:58:45;15.10;99.90
18141;DHT22;9196;49.194;12.526;2022-10-15T09:01:17;15.20;99.90
18141;DHT22;9196;49.194;12.526;2022-10-15T09:03:54;15.10;99.90
18141;DHT22;9196;49.194;12.526;2022-10-15T09:06:26;15.20;99.90
18141;DHT22;9196;49.194;12.526;2022-10-15T09:09:00;15.10;99.90
18141;DHT22;9196;49.194;12.526;2022-10-15T09:11:37;15.10;99.90
18141;DHT22;9196;49.194;12.526;2022-10-15T09:14:13;15.10;99.90
18141;DHT22;9196;49.194;12.526;2022-10-15T09:16:45;15.10;99.90
18141;DHT22;9196;49.194;12.526;2022-10-15T09:19:17;15.10;99.90
18141;DHT22;9196;49.194;12.526;2022-10-15T09:21:45;15.20;99.90
18141;DHT22;9196;49.194;12.526;2022-10-15T09:24:19;15.20;99.90
18141;DHT22;9196;49.194;12.526;2022-10-15T09:26:58;15.20;99.90
18141;DHT22;9196;49.194;12.526;2022-10-15T09:29:30;15.10;99.90
18141;DHT22;9196;49.194;12.526;2022-10-15T09:32:09;15.20;99.90
18141;DHT22;9196;49.194;12.526;2022-10-15T09:34:43;15.30;99.90
18141;DHT22;9196;49.194;12.526;2022-10-15T09:37:16;15.30;99.90
18141;DHT22;9196;49.194;12.526;2022-10-15T09:39:55;15.40;99.90
18141;DHT22;9196;49.194;12.526;2022-10-15T09:42:28;15.50;99.90
18141;DHT22;9196;49.194;12.526;2022-10-15T09:44:58;15.60;99.90
18141;DHT22;9196;49.194;12.526;2022-10-15T09:47:28;15.60;99.90
18141;DHT22;9196;49.194;12.526;2022-10-15T09:49:59;15.70;99.90
18141;DHT22;9196;49.194;12.526;2022-10-15T09:52:41;15.70;99.90
18141;DHT22;9196;49.194;12.526;2022-10-15T09:55:23;15.70;99.90
18141;DHT22;9196;49.194;12.526;2022-10-15T09:57:55;15.70;99.90
18141;DHT22;9196;49.194;12.526;2022-10-15T10:00:24;15.70;99.90
18141;DHT22;9196;49.194;12.526;2022-10-15T10:03:03;15.80;99.90
18141;DHT22;9196;49.194;12.526;2022-10-15T10:05:35;15.80;99.90
18141;DHT22;9196;49.194;12.526;2022-10-15T10:08:08;15.90;99.90
18141;DHT22;9196;49.194;12.526;2022-10-15T10:10:36;15.90;99.90
18141;DHT22;9196;49.194;12.526;2022-10-15T10:13:06;15.90;99.90
18141;DHT22;9196;49.194;12.526;2022-10-15T10:15:41;15.90;99.90
18141;DHT22;9196;49.194;12.526;2022-10-15T10:18:17;15.90;99.90
18141;DHT22;9196;49.194;12.526;2022-10-15T10:20:53;15.90;99.90
18141;DHT22;9196;49.194;12.526;2022-10-15T10:23:27;15.80;99.90
18141;DHT22;9196;49.194;12.526;2022-10-15T10:25:55;15.90;99.90
18141;DHT22;9196;49.194;12.526;2022-10-15T10:28:28;15.90;99.90
18141;DHT22;9196;49.194;12.526;2022-10-15T10:31:02;15.90;99.90
18141;DHT22;9196;49.194;12.526;2022-10-15T10:33:35;15.90;99.90
18141;DHT22;9196;49.194;12.526;2022-10-15T10:36:07;15.90;99.90
18141;DHT22;9196;49.194;12.526;2022-10-15T10:38:54;15.90;99.90
18141;DHT22;9196;49.194;12.526;2022-10-15T10:41:21;16.00;99.90
18141;DHT22;9196;49.194;12.526;2022-10-15T10:43:53;16.00;99.90
18141;DHT22;9196;49.194;12.526;2022-10-15T10:46:22;16.00;99.90
18141;DHT22;9196;49.194;12.526;2022-10-15T10:48:50;16.00;99.90
18141;DHT22;9196;49.194;12.526;2022-10-15T10:51:20;16.00;99.90
18141;DHT22;9196;49.194;12.526;2022-10-15T10:53:51;16.10;99.90
18141;DHT22;9196;49.194;12.526;2022-10-15T10:56:22;16.10;99.90
18141;DHT22;9196;49.194;12.526;2022-10-15T11:01:26;16.20;99.90
18141;DHT22;9196;49.194;12.526;2022-10-15T11:03:54;16.20;99.90
18141;DHT22;9196;49.194;12.526;2022-10-15T11:06:48;16.20;99.90
18141;DHT22;9196;49.194;12.526;2022-10-15T11:09:24;16.10;99.90
18141;DHT22;9196;49.194;12.526;2022-10-15T11:12:02;16.10;99.90
18141;DHT22;9196;49.194;12.526;2022-10-15T11:14:39;16.20;99.90
18141;DHT22;9196;49.194;12.526;2022-10-15T11:17:15;16.30;99.90
18141;DHT22;9196;49.194;12.526;2022-10-15T11:19:46;16.40;99.90
18141;DHT22;9196;49.194;12.526;2022-10-15T11:22:29;16.40;99.90
18141;DHT22;9196;49.194;12.526;2022-10-15T11:25:03;16.50;99.90
18141;DHT22;9196;49.194;12.526;2022-10-15T11:27:48;16.50;99.90
18141;DHT22;9196;49.194;12.526;2022-10-15T11:30:29;16.60;99.90
18141;DHT22;9196;49.194;12.526;2022-10-15T11:33:06;16.70;99.90
18141;DHT22;9196;49.194;12.526;2022-10-15T11:35:45;16.80;99.90
18141;DHT22;9196;49.194;12.526;2022-10-15T11:38:22;16.90;99.90
18141;DHT22;9196;49.194;12.526;2022-10-15T11:41:02;17.00;99.90
18141;DHT22;9196;49.194;12.526;2022-10-15T11:43:47;17.30;99.90
18141;DHT22;9196;49.194;12.526;2022-10-15T11:46:21;17.50;99.90
18141;DHT22;9196;49.194;12.526;2022-10-15T11:49:05;17.70;99.90
18141;DHT22;9196;49.194;12.526;2022-10-15T11:51:52;17.80;99.90
18141;DHT22;9196;49.194;12.526;2022-10-15T11:54:28;17.80;99.90
18141;DHT22;9196;49.194;12.526;2022-10-15T11:56:57;17.80;99.90
18141;DHT22;9196;49.194;12.526;2022-10-15T11:59:34;17.80;99.90
18141;DHT22;9196;49.194;12.526;2022-10-15T12:02:04;17.80;99.90
18141;DHT22;9196;49.194;12.526;2022-10-15T12:04:38;17.90;99.90
18141;DHT22;9196;49.194;12.526;2022-10-15T12:07:12;17.90;99.90
18141;DHT22;9196;49.194;12.526;2022-10-15T12:09:47;17.80;99.90
18141;DHT22;9196;49.194;12.526;2022-10-15T12:12:21;17.70;99.90
18141;DHT22;9196;49.194;12.526;2022-10-15T12:14:58;17.90;99.90
18141;DHT22;9196;49.194;12.526;2022-10-15T12:17:35;18.30;99.90
18141;DHT22;9196;49.194;12.526;2022-10-15T12:20:10;18.40;99.90
18141;DHT22;9196;49.194;12.526;2022-10-15T12:22:39;18.50;99.90
18141;DHT22;9196;49.194;12.526;2022-10-15T12:25:43;18.70;99.90
18141;DHT22;9196;49.194;12.526;2022-10-15T12:28:17;19.00;99.90
18141;DHT22;9196;49.194;12.526;2022-10-15T12:30:56;19.10;99.90
18141;DHT22;9196;49.194;12.526;2022-10-15T12:33:30;19.20;99.90
18141;DHT22;9196;49.194;12.526;2022-10-15T12:35:59;19.20;99.90
18141;DHT22;9196;49.194;12.526;2022-10-15T12:38:29;19.00;99.90
18141;DHT22;9196;49.194;12.526;2022-10-15T12:41:01;18.80;99.90
18141;DHT22;9196;49.194;12.526;2022-10-15T12:43:29;18.60;99.90
18141;DHT22;9196;49.194;12.526;2022-10-15T12:45:59;18.50;99.90
18141;DHT22;9196;49.194;12.526;2022-10-15T12:48:34;18.50;99.90
18141;DHT22;9196;49.194;12.526;2022-10-15T12:54:32;18.20;99.90
18141;DHT22;9196;49.194;12.526;2022-10-15T12:57:01;18.10;99.90
18141;DHT22;9196;49.194;12.526;2022-10-15T13:02:34;18.00;99.90
18141;DHT22;9196;49.194;12.526;2022-10-15T13:05:02;18.00;99.90
18141;DHT22;9196;49.194;12.526;2022-10-15T13:07:30;18.00;99.90
18141;DHT22;9196;49.194;12.526;2022-10-15T13:09:58;18.00;99.90
18141;DHT22;9196;49.194;12.526;2022-10-15T13:12:27;18.10;99.90
18141;DHT22;9196;49.194;12.526;2022-10-15T13:14:58;18.20;99.90
18141;DHT22;9196;49.194;12.526;2022-10-15T13:17:28;18.20;99.90
18141;DHT22;9196;49.194;12.526;2022-10-15T13:19:58;18.30;99.90
18141;DHT22;9196;49.194;12.526;2022-10-15T13:22:28;18.40;99.90
18141;DHT22;9196;49.194;12.526;2022-10-15T13:24:55;18.30;99.90
18141;DHT22;9196;49.194;12.526;2022-10-15T13:27:24;18.30;99.90
18141;DHT22;9196;49.194;12.526;2022-10-15T13:29:57;18.20;99.90
18141;DHT22;9196;49.194;12.526;2022-10-15T13:32:26;18.10;99.90
18141;DHT22;9196;49.194;12.526;2022-10-15T13:34:54;18.10;99.90
18141;DHT22;9196;49.194;12.526;2022-10-15T13:37:27;18.10;99.90
18141;DHT22;9196;49.194;12.526;2022-10-15T13:39:55;18.20;99.90
18141;DHT22;9196;49.194;12.526;2022-10-15T13:42:24;18.10;99.90
18141;DHT22;9196;49.194;12.526;2022-10-15T13:45:00;18.10;99.90
18141;DHT22;9196;49.194;12.526;2022-10-15T13:47:30;18.10;99.90
18141;DHT22;9196;49.194;12.526;2022-10-15T13:50:16;18.10;99.90
18141;DHT22;9196;49.194;12.526;2022-10-15T13:52:46;18.00;99.90
18141;DHT22;9196;49.194;12.526;2022-10-15T13:55:18;18.00;99.90
18141;DHT22;9196;49.194;12.526;2022-10-15T13:57:45;18.00;99.90
18141;DHT22;9196;49.194;12.526;2022-10-15T14:00:22;18.00;99.90
18141;DHT22;9196;49.194;12.526;2022-10-15T14:03:07;18.10;99.90
18141;DHT22;9196;49.194;12.526;2022-10-15T14:05:34;17.90;99.90
18141;DHT22;9196;49.194;12.526;2022-10-15T14:08:01;17.90;99.90
18141;DHT22;9196;49.194;12.526;2022-10-15T14:10:28;17.90;99.90
18141;DHT22;9196;49.194;12.526;2022-10-15T14:12:55;17.90;99.90
18141;DHT22;9196;49.194;12.526;2022-10-15T14:15:45;17.90;99.90
18141;DHT22;9196;49.194;12.526;2022-10-15T14:18:14;17.90;99.90
18141;DHT22;9196;49.194;12.526;2022-10-15T14:20:46;17.90;99.90
18141;DHT22;9196;49.194;12.526;2022-10-15T14:23:15;17.90;99.90
18141;DHT22;9196;49.194;12.526;2022-10-15T14:25:51;17.80;99.90
18141;DHT22;9196;49.194;12.526;2022-10-15T14:28:20;17.60;99.90
18141;DHT22;9196;49.194;12.526;2022-10-15T14:30:48;17.50;99.90
18141;DHT22;9196;49.194;12.526;2022-10-15T14:33:33;17.40;99.90
18141;DHT22;9196;49.194;12.526;2022-10-15T14:36:07;17.20;99.90
18141;DHT22;9196;49.194;12.526;2022-10-15T14:38:35;17.00;99.90
18141;DHT22;9196;49.194;12.526;2022-10-15T14:41:03;16.90;99.90
18141;DHT22;9196;49.194;12.526;2022-10-15T14:43:35;16.90;99.90
18141;DHT22;9196;49.194;12.526;2022-10-15T14:46:05;16.90;99.90
18141;DHT22;9196;49.194;12.526;2022-10-15T14:48:34;16.70;99.90
18141;DHT22;9196;49.194;12.526;2022-10-15T14:51:04;16.80;99.90
18141;DHT22;9196;49.194;12.526;2022-10-15T14:53:34;16.80;99.90
18141;DHT22;9196;49.194;12.526;2022-10-15T14:56:05;16.80;99.90
18141;DHT22;9196;49.194;12.526;2022-10-15T14:58:33;16.80;99.90
18141;DHT22;9196;49.194;12.526;2022-10-15T15:01:06;16.80;99.90
18141;DHT22;9196;49.194;12.526;2022-10-15T15:03:38;17.00;99.90
18141;DHT22;9196;49.194;12.526;2022-10-15T15:06:06;17.30;99.90
18141;DHT22;9196;49.194;12.526;2022-10-15T15:08:33;17.40;99.90
18141;DHT22;9196;49.194;12.526;2022-10-15T15:11:02;17.50;99.90
18141;DHT22;9196;49.194;12.526;2022-10-15T15:13:31;17.50;99.90
18141;DHT22;9196;49.194;12.526;2022-10-15T15:15:58;17.50;99.90
18141;DHT22;9196;49.194;12.526;2022-10-15T15:18:26;17.40;99.90
18141;DHT22;9196;49.194;12.526;2022-10-15T15:20:57;17.30;99.90
18141;DHT22;9196;49.194;12.526;2022-10-15T15:23:25;17.30;99.90
18141;DHT22;9196;49.194;12.526;2022-10-15T15:25:53;17.20;99.90
18141;DHT22;9196;49.194;12.526;2022-10-15T15:28:22;17.20;99.90
18141;DHT22;9196;49.194;12.526;2022-10-15T15:30:55;17.10;99.90
18141;DHT22;9196;49.194;12.526;2022-10-15T15:33:23;17.10;99.90
18141;DHT22;9196;49.194;12.526;2022-10-15T15:35:53;17.10;99.90
18141;DHT22;9196;49.194;12.526;2022-10-15T15:38:22;17.10;99.90
18141;DHT22;9196;49.194;12.526;2022-10-15T15:40:59;17.10;99.90
18141;DHT22;9196;49.194;12.526;2022-10-15T15:43:26;17.10;99.90
18141;DHT22;9196;49.194;12.526;2022-10-15T15:45:53;17.10;99.90
18141;DHT22;9196;49.194;12.526;2022-10-15T15:48:20;17.10;99.90
18141;DHT22;9196;49.194;12.526;2022-10-15T15:50:47;17.10;99.90
18141;DHT22;9196;49.194;12.526;2022-10-15T15:53:15;17.10;99.90
18141;DHT22;9196;49.194;12.526;2022-10-15T15:55:42;17.10;99.90
18141;DHT22;9196;49.194;12.526;2022-10-15T15:58:08;17.10;99.90
18141;DHT22;9196;49.194;12.526;2022-10-15T16:00:35;17.10;99.90